sensor_id;sensor_type;location;lat;lon;timestamp;pressure;altitude;pressure_sealevel;temperature;humidity
34185;BME280;20454;48.100;11.776;2023-04-19T00:00:59;95821.81;;;8.57;100.00
34185;BME280;20454;48.100;11.776;2023-04-19T00:03:27;95823.97;;;8.60;100.00
34185;BME280;20454;48.100;11.776;2023-04-19T00:05:52;95825.91;;;8.60;100.00
34185;BME280;20454;48.100;11.776;2023-04-19T00:08:18;95819.06;;;8.57;100.00
34185;BME280;20454;48.100;11.776;2023-04-19T00:10:44;95823.47;;;8.58;100.00
34185;BME280;20454;48.100;11.776;2023-04-19T00:13:10;95820.16;;;8.56;100.00
34185;BME280;20454;48.100;11.776;2023-04-19T00:15:36;95820.69;;;8.58;100.00
34185;BME280;20454;48.100;11.776;2023-04-19T00:18:02;95815.22;;;8.53;100.00
34185;BME280;20454;48.100;11.776;2023-04-19T00:20:28;95808.84;;;8.53;100.00
34185;BME280;20454;48.100;11.776;2023-04-19T00:22:54;95807.19;;;8.52;100.00
34185;BME280;20454;48.100;11.776;2023-04-19T00:25:19;95809.97;;;8.52;100.00
34185;BME280;20454;48.100;11.776;2023-04-19T00:27:45;95806.38;;;8.51;100.00
34185;BME280;20454;48.100;11.776;2023-04-19T00:30:11;95806.69;;;8.50;100.00
34185;BME280;20454;48.100;11.776;2023-04-19T00:32:36;95810.81;;;8.52;100.00
34185;BME280;20454;48.100;11.776;2023-04-19T00:35:02;95811.59;;;8.53;100.00
34185;BME280;20454;48.100;11.776;2023-04-19T00:37:28;95805.56;;;8.51;100.00
34185;BME280;20454;48.100;11.776;2023-04-19T00:39:54;95799.16;;;8.50;100.00
34185;BME280;20454;48.100;11.776;2023-04-19T00:42:19;95796.41;;;8.50;100.00
34185;BME280;20454;48.100;11.776;2023-04-19T00:44:45;95790.03;;;8.50;100.00
34185;BME280;20454;48.100;11.776;2023-04-19T00:47:10;95793.63;;;8.50;100.00
34185;BME280;20454;48.100;11.776;2023-04-19T00:49:36;95795.59;;;8.50;100.00
34185;BME280;20454;48.100;11.776;2023-04-19T00:52:02;95785.41;;;8.45;100.00
34185;BME280;20454;48.100;11.776;2023-04-19T00:54:28;95783.78;;;8.44;100.00
34185;BME280;20454;48.100;11.776;2023-04-19T00:56:54;95785.41;;;8.45;100.00
34185;BME280;20454;48.100;11.776;2023-04-19T00:59:20;95790.63;;;8.47;100.00
34185;BME280;20454;48.100;11.776;2023-04-19T01:01:46;95782.63;;;8.45;100.00
34185;BME280;20454;48.100;11.776;2023-04-19T01:04:11;95780.16;;;8.44;100.00
34185;BME280;20454;48.100;11.776;2023-04-19T01:06:37;95786.22;;;8.46;100.00
34185;BME280;20454;48.100;11.776;2023-04-19T01:09:04;95779.31;;;8.43;100.00
34185;BME280;20454;48.100;11.776;2023-04-19T01:11:30;95782.63;;;8.45;100.00
34185;BME280;20454;48.100;11.776;2023-04-19T01:13:56;95781.28;;;8.43;100.00
34185;BME280;20454;48.100;11.776;2023-04-19T01:16:26;95791.25;;;8.44;100.00
34185;BME280;20454;48.100;11.776;2023-04-19T01:18:52;95772.25;;;8.37;100.00
34185;BME280;20454;48.100;11.776;2023-04-19T01:21:18;95778.00;;;8.41;100.00
34185;BME280;20454;48.100;11.776;2023-04-19T01:23:44;95780.16;;;8.44;100.00
34185;BME280;20454;48.100;11.776;2023-04-19T01:26:10;95769.97;;;8.39;100.00
34185;BME280;20454;48.100;11.776;2023-04-19T01:28:35;95774.41;;;8.40;100.00
34185;BME280;20454;48.100;11.776;2023-04-19T01:31:01;95763.31;;;8.40;100.00
34185;BME280;20454;48.100;11.776;2023-04-19T01:33:27;95773.56;;;8.40;100.00
34185;BME280;20454;48.100;11.776;2023-04-19T01:35:52;95758.66;;;8.36;100.00
34185;BME280;20454;48.100;11.776;2023-04-19T01:38:18;95757.03;;;8.35;100.00
34185;BME280;20454;48.100;11.776;2023-04-19T01:40:44;95755.38;;;8.34;100.00
34185;BME280;20454;48.100;11.776;2023-04-19T01:43:15;95748.78;;;8.30;100.00
34185;BME280;20454;48.100;11.776;2023-04-19T01:45:41;95760.09;;;8.33;100.00
34185;BME280;20454;48.100;11.776;2023-04-19T01:48:06;95753.44;;;8.34;100.00
34185;BME280;20454;48.100;11.776;2023-04-19T01:50:32;95744.09;;;8.30;100.00
34185;BME280;20454;48.100;11.776;2023-04-19T01:52:58;95751.84;;;8.28;100.00
34185;BME280;20454;48.100;11.776;2023-04-19T01:55:24;95736.44;;;8.22;100.00
34185;BME280;20454;48.100;11.776;2023-04-19T01:57:50;95750.72;;;8.29;100.00
34185;BME280;20454;48.100;11.776;2023-04-19T04:01:54;95662.59;;;8.13;100.00
34185;BME280;20454;48.100;11.776;2023-04-19T04:04:20;95668.66;;;8.15;100.00
34185;BME280;20454;48.100;11.776;2023-04-19T04:06:45;95671.72;;;8.13;100.00
34185;BME280;20454;48.100;11.776;2023-04-19T04:09:11;95674.47;;;8.13;100.00
34185;BME280;20454;48.100;11.776;2023-04-19T04:11:36;95671.72;;;8.13;100.00
34185;BME280;20454;48.100;11.776;2023-04-19T04:14:03;95668.94;;;8.13;100.00
34185;BME280;20454;48.100;11.776;2023-04-19T04:16:28;95673.13;;;8.11;100.00
34185;BME280;20454;48.100;11.776;2023-04-19T04:18:54;95670.38;;;8.11;100.00
34185;BME280;20454;48.100;11.776;2023-04-19T04:21:19;95672.56;;;8.14;100.00
34185;BME280;20454;48.100;11.776;2023-04-19T04:23:45;95669.84;;;8.09;100.00
34185;BME280;20454;48.100;11.776;2023-04-19T04:26:11;95683.63;;;8.14;100.00
34185;BME280;20454;48.100;11.776;2023-04-19T04:28:38;95679.72;;;8.15;100.00
34185;BME280;20454;48.100;11.776;2023-04-19T04:31:03;95678.91;;;8.14;100.00
34185;BME280;20454;48.100;11.776;2023-04-19T04:33:30;95682.00;;;8.13;100.00
34185;BME280;20454;48.100;11.776;2023-04-19T04:35:55;95679.00;;;8.09;100.00
34185;BME280;20454;48.100;11.776;2023-04-19T04:38:23;95678.69;;;8.11;100.00
34185;BME280;20454;48.100;11.776;2023-04-19T04:40:50;95667.69;;;8.06;100.00
34185;BME280;20454;48.100;11.776;2023-04-19T06:01:02;95657.53;;;8.33;100.00
34185;BME280;20454;48.100;11.776;2023-04-19T06:03:29;95659.91;;;8.40;100.00
34185;BME280;20454;48.100;11.776;2023-04-19T06:05:55;95660.94;;;8.44;100.00
34185;BME280;20454;48.100;11.776;2023-04-19T06:08:20;95660.94;;;8.44;100.00
34185;BME280;20454;48.100;11.776;2023-04-19T06:10:46;95658.38;;;8.47;100.00
34185;BME280;20454;48.100;11.776;2023-04-19T06:13:14;95660.31;;;8.47;100.00
34185;BME280;20454;48.100;11.776;2023-04-19T06:15:40;95655.91;;;8.46;100.00
34185;BME280;20454;48.100;11.776;2023-04-19T06:18:06;95668.66;;;8.47;100.00
34185;BME280;20454;48.100;11.776;2023-04-19T06:20:38;95663.44;;;8.45;100.00
34185;BME280;20454;48.100;11.776;2023-04-19T06:23:04;95658.69;;;8.46;100.00
34185;BME280;20454;48.100;11.776;2023-04-19T06:25:30;95656.25;;;8.44;100.00
34185;BME280;20454;48.100;11.776;2023-04-19T06:27:56;95659.31;;;8.43;100.00
34185;BME280;20454;48.100;11.776;2023-04-19T06:30:22;95653.56;;;8.39;100.00
34185;BME280;20454;48.100;11.776;2023-04-19T06:32:47;95667.41;;;8.39;100.00
34185;BME280;20454;48.100;11.776;2023-04-19T06:35:13;95663.59;;;8.35;100.00
34185;BME280;20454;48.100;11.776;2023-04-19T06:37:39;95655.28;;;8.35;100.00
34185;BME280;20454;48.100;11.776;2023-04-19T06:40:05;95661.44;;;8.32;100.00
34185;BME280;20454;48.100;11.776;2023-04-19T06:42:33;95654.47;;;8.35;100.00
34185;BME280;20454;48.100;11.776;2023-04-19T06:44:59;95657.53;;;8.33;100.00
34185;BME280;20454;48.100;11.776;2023-04-19T06:47:25;95657.03;;;8.31;100.00
34185;BME280;20454;48.100;11.776;2023-04-19T06:49:51;95651.50;;;8.31;100.00
34185;BME280;20454;48.100;11.776;2023-04-19T06:52:16;95655.59;;;8.34;100.00
34185;BME280;20454;48.100;11.776;2023-04-19T06:54:49;95655.59;;;8.34;100.00
34185;BME280;20454;48.100;11.776;2023-04-19T06:57:15;95647.28;;;8.34;100.00
34185;BME280;20454;48.100;11.776;2023-04-19T06:59:41;95649.94;;;8.39;100.00
34185;BME280;20454;48.100;11.776;2023-04-19T08:06:54;95616.56;;;9.95;100.00
34185;BME280;20454;48.100;11.776;2023-04-19T08:09:20;95605.16;;;10.19;100.00
34185;BME280;20454;48.100;11.776;2023-04-19T08:11:45;95608.09;;;10.44;100.00
34185;BME280;20454;48.100;11.776;2023-04-19T08:14:11;95622.31;;;10.65;100.00
34185;BME280;20454;48.100;11.776;2023-04-19T08:16:37;95607.97;;;10.88;100.00
34185;BME280;20454;48.100;11.776;2023-04-19T08:19:02;95604.94;;;11.07;97.13
34185;BME280;20454;48.100;11.776;2023-04-19T08:21:28;95599.09;;;11.25;93.83
34185;BME280;20454;48.100;11.776;2023-04-19T08:23:54;95594.25;;;11.48;91.87
34185;BME280;20454;48.100;11.776;2023-04-19T08:26:19;95595.75;;;11.71;90.83
34185;BME280;20454;48.100;11.776;2023-04-19T08:28:47;95601.66;;;11.95;91.55
34185;BME280;20454;48.100;11.776;2023-04-19T08:31:14;95582.63;;;12.14;89.49
34185;BME280;20454;48.100;11.776;2023-04-19T08:33:40;95590.31;;;12.34;86.14
34185;BME280;20454;48.100;11.776;2023-04-19T08:36:06;95585.19;;;12.44;82.56
34185;BME280;20454;48.100;11.776;2023-04-19T08:38:32;95587.50;;;12.42;80.26
34185;BME280;20454;48.100;11.776;2023-04-19T08:40:57;95588.66;;;12.41;80.29
34185;BME280;20454;48.100;11.776;2023-04-19T08:43:24;95578.47;;;12.37;82.30
34185;BME280;20454;48.100;11.776;2023-04-19T08:45:53;95584.38;;;12.44;83.21
34185;BME280;20454;48.100;11.776;2023-04-19T08:48:19;95575.97;;;12.52;84.56
34185;BME280;20454;48.100;11.776;2023-04-19T08:50:46;95584.34;;;12.61;82.32
34185;BME280;20454;48.100;11.776;2023-04-19T08:53:12;95576.59;;;12.58;84.85
34185;BME280;20454;48.100;11.776;2023-04-19T08:55:40;95579.59;;;12.53;82.02
34185;BME280;20454;48.100;11.776;2023-04-19T08:58:06;95575.69;;;12.37;83.13
34185;BME280;20454;48.100;11.776;2023-04-19T09:00:32;95569.63;;;12.26;85.65
34185;BME280;20454;48.100;11.776;2023-04-19T09:02:58;95564.56;;;12.11;86.20
34185;BME280;20454;48.100;11.776;2023-04-19T09:05:24;95569.03;;;11.95;84.32
34185;BME280;20454;48.100;11.776;2023-04-19T09:07:50;95564.28;;;11.70;84.78
34185;BME280;20454;48.100;11.776;2023-04-19T09:10:18;95562.00;;;11.64;88.33
34185;BME280;20454;48.100;11.776;2023-04-19T09:13:01;95560.97;;;11.51;88.81
34185;BME280;20454;48.100;11.776;2023-04-19T09:15:47;95566.53;;;11.43;89.62
34185;BME280;20454;48.100;11.776;2023-04-19T09:18:13;95556.53;;;11.33;89.00
34185;BME280;20454;48.100;11.776;2023-04-19T09:20:40;95550.78;;;11.30;90.31
34185;BME280;20454;48.100;11.776;2023-04-19T09:23:17;95559.00;;;11.35;90.34
34185;BME280;20454;48.100;11.776;2023-04-19T09:25:56;95547.84;;;11.35;90.62
34185;BME280;20454;48.100;11.776;2023-04-19T09:28:25;95549.97;;;11.38;89.86
34185;BME280;20454;48.100;11.776;2023-04-19T09:30:51;95541.28;;;11.39;87.94
34185;BME280;20454;48.100;11.776;2023-04-19T09:33:37;95548.97;;;11.42;88.11
34185;BME280;20454;48.100;11.776;2023-04-19T09:36:06;95540.47;;;11.39;90.48
34185;BME280;20454;48.100;11.776;2023-04-19T09:38:52;95539.66;;;11.38;90.47
34185;BME280;20454;48.100;11.776;2023-04-19T09:41:18;95535.22;;;11.29;89.26
34185;BME280;20454;48.100;11.776;2023-04-19T09:43:44;95533.56;;;11.19;88.52
34185;BME280;20454;48.100;11.776;2023-04-19T09:48:54;95536.66;;;11.18;90.75
34185;BME280;20454;48.100;11.776;2023-04-19T09:51:20;95533.22;;;11.12;89.03
34185;BME280;20454;48.100;11.776;2023-04-19T09:53:46;95526.03;;;11.20;89.73
34185;BME280;20454;48.100;11.776;2023-04-19T09:56:12;95520.97;;;11.47;91.30
34185;BME280;20454;48.100;11.776;2023-04-19T09:58:38;95511.31;;;11.79;89.18
34185;BME280;20454;48.100;11.776;2023-04-19T10:01:04;95522.91;;;12.15;87.11
34185;BME280;20454;48.100;11.776;2023-04-19T10:03:31;95509.84;;;12.44;83.05
34185;BME280;20454;48.100;11.776;2023-04-19T10:05:57;95513.09;;;12.92;83.55
34185;BME280;20454;48.100;11.776;2023-04-19T10:08:23;95500.59;;;13.27;80.78
34185;BME280;20454;48.100;11.776;2023-04-19T10:10:50;95489.06;;;13.70;78.41
34185;BME280;20454;48.100;11.776;2023-04-19T10:13:19;95492.25;;;14.33;72.01
34185;BME280;20454;48.100;11.776;2023-04-19T10:15:50;95485.91;;;15.04;69.80
34185;BME280;20454;48.100;11.776;2023-04-19T10:18:16;95477.47;;;15.92;68.99
34185;BME280;20454;48.100;11.776;2023-04-19T10:20:54;95469.88;;;16.47;69.16
34185;BME280;20454;48.100;11.776;2023-04-19T10:23:22;95469.41;;;16.45;65.29
34185;BME280;20454;48.100;11.776;2023-04-19T10:25:48;95466.44;;;16.26;65.65
34185;BME280;20454;48.100;11.776;2023-04-19T10:28:17;95461.38;;;15.77;66.38
34185;BME280;20454;48.100;11.776;2023-04-19T10:30:59;95469.91;;;15.17;68.04
34185;BME280;20454;48.100;11.776;2023-04-19T10:33:29;95466.31;;;14.69;69.89
34185;BME280;20454;48.100;11.776;2023-04-19T10:35:57;95468.19;;;14.20;68.66
34185;BME280;20454;48.100;11.776;2023-04-19T10:38:37;95460.75;;;13.71;71.98
34185;BME280;20454;48.100;11.776;2023-04-19T10:41:03;95472.84;;;13.22;74.38
34185;BME280;20454;48.100;11.776;2023-04-19T10:43:36;95469.16;;;12.81;75.87
34185;BME280;20454;48.100;11.776;2023-04-19T10:46:35;95464.59;;;12.39;79.83
34185;BME280;20454;48.100;11.776;2023-04-19T10:49:02;95460.44;;;12.07;83.93
34185;BME280;20454;48.100;11.776;2023-04-19T10:51:35;95460.47;;;11.82;86.07
34185;BME280;20454;48.100;11.776;2023-04-19T10:54:02;95457.41;;;11.58;86.90
34185;BME280;20454;48.100;11.776;2023-04-19T11:01:38;95448.41;;;11.27;90.90
34185;BME280;20454;48.100;11.776;2023-04-19T11:04:08;95441.81;;;11.14;91.93
34185;BME280;20454;48.100;11.776;2023-04-19T11:06:36;95445.59;;;11.10;92.71
34185;BME280;20454;48.100;11.776;2023-04-19T11:09:02;95447.56;;;11.01;92.63
34185;BME280;20454;48.100;11.776;2023-04-19T11:11:36;95441.81;;;10.97;93.51
34185;BME280;20454;48.100;11.776;2023-04-19T11:14:02;95435.94;;;10.90;94.71
34185;BME280;20454;48.100;11.776;2023-04-19T11:16:29;95440.97;;;10.88;93.59
34185;BME280;20454;48.100;11.776;2023-04-19T11:18:55;95429.03;;;10.79;93.55
34185;BME280;20454;48.100;11.776;2023-04-19T11:21:21;95431.19;;;10.82;93.82
34185;BME280;20454;48.100;11.776;2023-04-19T11:23:48;95438.53;;;10.87;94.58
34185;BME280;20454;48.100;11.776;2023-04-19T11:26:14;95435.75;;;10.87;94.32
34185;BME280;20454;48.100;11.776;2023-04-19T11:28:40;95437.72;;;10.86;94.71
34185;BME280;20454;48.100;11.776;2023-04-19T11:31:06;95421.84;;;10.87;95.55
34185;BME280;20454;48.100;11.776;2023-04-19T11:33:35;95416.28;;;10.87;96.67
34185;BME280;20454;48.100;11.776;2023-04-19T11:36:02;95421.50;;;10.88;96.77
34185;BME280;20454;48.100;11.776;2023-04-19T11:38:30;95425.78;;;10.86;96.63
34185;BME280;20454;48.100;11.776;2023-04-19T11:41:00;95406.75;;;10.71;96.44
34185;BME280;20454;48.100;11.776;2023-04-19T11:43:35;95404.59;;;10.59;96.69
34185;BME280;20454;48.100;11.776;2023-04-19T11:46:08;95411.63;;;10.57;97.48
34185;BME280;20454;48.100;11.776;2023-04-19T11:48:35;95420.78;;;10.49;98.22
34185;BME280;20454;48.100;11.776;2023-04-19T11:51:01;95413.91;;;10.46;99.04
34185;BME280;20454;48.100;11.776;2023-04-19T11:53:27;95409.31;;;10.42;98.80
34185;BME280;20454;48.100;11.776;2023-04-19T12:00:54;95419.28;;;10.34;98.08
34185;BME280;20454;48.100;11.776;2023-04-19T12:03:23;95419.59;;;10.33;99.03
34185;BME280;20454;48.100;11.776;2023-04-19T12:05:53;95424.69;;;10.31;99.98
34185;BME280;20454;48.100;11.776;2023-04-19T12:08:32;95426.63;;;10.30;100.00
34185;BME280;20454;48.100;11.776;2023-04-19T12:10:59;95416.00;;;10.32;100.00
34185;BME280;20454;48.100;11.776;2023-04-19T12:13:25;95414.38;;;10.40;100.00
34185;BME280;20454;48.100;11.776;2023-04-19T12:15:51;95421.44;;;10.46;100.00
34185;BME280;20454;48.100;11.776;2023-04-19T12:18:17;95425.03;;;10.46;100.00
34185;BME280;20454;48.100;11.776;2023-04-19T12:20:45;95411.59;;;10.40;100.00
34185;BME280;20454;48.100;11.776;2023-04-19T12:23:12;95423.19;;;10.25;100.00
34185;BME280;20454;48.100;11.776;2023-04-19T12:25:42;95425.44;;;10.14;100.00
34185;BME280;20454;48.100;11.776;2023-04-19T12:28:08;95417.88;;;10.06;100.00
34185;BME280;20454;48.100;11.776;2023-04-19T12:30:34;95421.06;;;10.00;100.00
34185;BME280;20454;48.100;11.776;2023-04-19T12:33:00;95421.56;;;9.93;100.00
34185;BME280;20454;48.100;11.776;2023-04-19T12:35:27;95407.13;;;9.83;100.00
34185;BME280;20454;48.100;11.776;2023-04-19T12:37:54;95411.66;;;9.79;100.00
34185;BME280;20454;48.100;11.776;2023-04-19T12:40:20;95407.91;;;9.75;100.00
34185;BME280;20454;48.100;11.776;2023-04-19T12:42:46;95413.13;;;9.76;100.00
34185;BME280;20454;48.100;11.776;2023-04-19T12:45:12;95401.66;;;9.69;100.00
34185;BME280;20454;48.100;11.776;2023-04-19T12:47:42;95410.34;;;9.76;100.00
34185;BME280;20454;48.100;11.776;2023-04-19T12:50:08;95404.47;;;9.78;100.00
34185;BME280;20454;48.100;11.776;2023-04-19T12:52:33;95410.53;;;9.80;100.00
34185;BME280;20454;48.100;11.776;2023-04-19T12:54:59;95397.28;;;9.77;100.00
34185;BME280;20454;48.100;11.776;2023-04-19T12:57:25;95407.44;;;9.81;100.00
34185;BME280;20454;48.100;11.776;2023-04-19T12:59:51;95399.22;;;9.76;100.00
34185;BME280;20454;48.100;11.776;2023-04-19T13:02:16;95404.66;;;9.81;100.00
34185;BME280;20454;48.100;11.776;2023-04-19T13:04:42;95396.97;;;9.78;100.00
34185;BME280;20454;48.100;11.776;2023-04-19T13:07:08;95387.16;;;9.81;100.00
34185;BME280;20454;48.100;11.776;2023-04-19T13:09:33;95396.38;;;9.90;100.00
34185;BME280;20454;48.100;11.776;2023-04-19T13:11:59;95394.44;;;9.99;100.00
34185;BME280;20454;48.100;11.776;2023-04-19T13:14:26;95389.38;;;10.01;100.00
34185;BME280;20454;48.100;11.776;2023-04-19T13:16:52;95395.66;;;10.06;100.00
34185;BME280;20454;48.100;11.776;2023-04-19T13:19:18;95395.97;;;10.05;100.00
34185;BME280;20454;48.100;11.776;2023-04-19T13:21:44;95392.03;;;10.06;100.00
34185;BME280;20454;48.100;11.776;2023-04-19T13:24:09;95398.75;;;10.05;100.00
34185;BME280;20454;48.100;11.776;2023-04-19T13:26:35;95382.66;;;10.02;100.00
34185;BME280;20454;48.100;11.776;2023-04-19T13:29:01;95386.59;;;10.01;100.00
34185;BME280;20454;48.100;11.776;2023-04-19T13:31:27;95383.81;;;10.01;100.00
34185;BME280;20454;48.100;11.776;2023-04-19T13:33:53;95384.47;;;9.98;100.00
34185;BME280;20454;48.100;11.776;2023-04-19T13:36:19;95379.03;;;9.93;100.00
34185;BME280;20454;48.100;11.776;2023-04-19T13:38:45;95378.06;;;9.89;100.00
34185;BME280;20454;48.100;11.776;2023-04-19T13:41:11;95367.88;;;9.84;100.00
34185;BME280;20454;48.100;11.776;2023-04-19T13:43:37;95369.56;;;9.85;100.00
34185;BME280;20454;48.100;11.776;2023-04-19T13:46:03;95377.88;;;9.85;100.00
34185;BME280;20454;48.100;11.776;2023-04-19T13:48:29;95383.44;;;9.85;100.00
34185;BME280;20454;48.100;11.776;2023-04-19T13:50:56;95368.66;;;9.76;100.00
34185;BME280;20454;48.100;11.776;2023-04-19T13:53:22;95370.66;;;9.76;100.00
34185;BME280;20454;48.100;11.776;2023-04-19T13:55:48;95364.72;;;9.69;100.00
34185;BME280;20454;48.100;11.776;2023-04-19T13:58:14;95370.09;;;9.65;100.00
34185;BME280;20454;48.100;11.776;2023-04-19T14:00:40;95377.13;;;9.63;100.00
34185;BME280;20454;48.100;11.776;2023-04-19T14:03:05;95372.84;;;9.57;100.00
34185;BME280;20454;48.100;11.776;2023-04-19T14:05:31;95370.00;;;9.48;100.00
34185;BME280;20454;48.100;11.776;2023-04-19T14:07:57;95383.09;;;9.48;100.00
34185;BME280;20454;48.100;11.776;2023-04-19T14:10:23;95382.00;;;9.36;100.00
34185;BME280;20454;48.100;11.776;2023-04-19T14:12:49;95384.56;;;9.24;100.00
34185;BME280;20454;48.100;11.776;2023-04-19T14:15:18;95386.97;;;9.17;100.00
34185;BME280;20454;48.100;11.776;2023-04-19T14:17:44;95386.25;;;9.11;100.00
34185;BME280;20454;48.100;11.776;2023-04-19T14:20:10;95392.06;;;9.01;100.00
34185;BME280;20454;48.100;11.776;2023-04-19T14:22:37;95394.09;;;8.87;100.00
34185;BME280;20454;48.100;11.776;2023-04-19T14:25:03;95396.38;;;8.85;100.00
34185;BME280;20454;48.100;11.776;2023-04-19T14:27:29;95405.00;;;8.84;100.00
34185;BME280;20454;48.100;11.776;2023-04-19T14:29:54;95403.34;;;8.83;100.00
34185;BME280;20454;48.100;11.776;2023-04-19T14:32:20;95409.31;;;8.76;100.00
34185;BME280;20454;48.100;11.776;2023-04-19T14:34:46;95408.31;;;8.72;100.00
34185;BME280;20454;48.100;11.776;2023-04-19T14:37:11;95407.28;;;8.68;100.00
34185;BME280;20454;48.100;11.776;2023-04-19T14:39:37;95404.81;;;8.67;100.00
34185;BME280;20454;48.100;11.776;2023-04-19T14:42:03;95403.91;;;8.71;100.00
34185;BME280;20454;48.100;11.776;2023-04-19T14:44:29;95409.75;;;8.70;100.00
34185;BME280;20454;48.100;11.776;2023-04-19T14:46:54;95407.28;;;8.68;100.00
34185;BME280;20454;48.100;11.776;2023-04-19T14:49:20;95411.31;;;8.62;100.00
34185;BME280;20454;48.100;11.776;2023-04-19T14:51:46;95407.66;;;8.53;100.00
34185;BME280;20454;48.100;11.776;2023-04-19T14:54:11;95417.00;;;8.44;100.00
34185;BME280;20454;48.100;11.776;2023-04-19T14:56:37;95416.81;;;8.40;100.00
34185;BME280;20454;48.100;11.776;2023-04-19T14:59:06;95415.56;;;8.33;100.00
34185;BME280;20454;48.100;11.776;2023-04-19T15:01:33;95403.59;;;8.24;100.00
34185;BME280;20454;48.100;11.776;2023-04-19T15:03:58;95410.25;;;8.23;100.00
34185;BME280;20454;48.100;11.776;2023-04-19T15:06:24;95423.06;;;8.19;100.00
34185;BME280;20454;48.100;11.776;2023-04-19T16:00:39;95444.19;;;7.29;100.00
34185;BME280;20454;48.100;11.776;2023-04-19T16:03:07;95440.91;;;7.27;100.00
34185;BME280;20454;48.100;11.776;2023-04-19T16:05:33;95461.91;;;7.28;100.00
34185;BME280;20454;48.100;11.776;2023-04-19T16:08:00;95454.22;;;7.25;100.00
34185;BME280;20454;48.100;11.776;2023-04-19T16:10:26;95453.41;;;7.24;100.00
34185;BME280;20454;48.100;11.776;2023-04-19T16:12:52;95453.94;;;7.26;100.00
34185;BME280;20454;48.100;11.776;2023-04-19T16:15:17;95456.72;;;7.26;100.00
34185;BME280;20454;48.100;11.776;2023-04-19T16:17:43;95448.41;;;7.26;100.00
34185;BME280;20454;48.100;11.776;2023-04-19T16:20:09;95450.97;;;7.23;100.00
34185;BME280;20454;48.100;11.776;2023-04-19T16:22:34;95452.69;;;7.19;100.00
34185;BME280;20454;48.100;11.776;2023-04-19T16:25:01;95450.19;;;7.17;100.00
34185;BME280;20454;48.100;11.776;2023-04-19T16:27:26;95465.81;;;7.27;100.00
34185;BME280;20454;48.100;11.776;2023-04-19T16:29:52;95458.13;;;7.24;100.00
34185;BME280;20454;48.100;11.776;2023-04-19T16:32:18;95461.41;;;7.26;100.00
34185;BME280;20454;48.100;11.776;2023-04-19T16:34:44;95470.63;;;7.21;100.00
34185;BME280;20454;48.100;11.776;2023-04-19T16:37:09;95473.47;;;7.16;100.00
34185;BME280;20454;48.100;11.776;2023-04-19T16:39:35;95488.50;;;7.10;100.00
34185;BME280;20454;48.100;11.776;2023-04-19T16:42:01;95496.44;;;6.98;100.00
34185;BME280;20454;48.100;11.776;2023-04-19T16:44:26;95480.50;;;6.90;100.00
34185;BME280;20454;48.100;11.776;2023-04-19T16:46:52;95483.38;;;6.85;100.00
34185;BME280;20454;48.100;11.776;2023-04-19T16:49:18;95496.66;;;6.83;100.00
34185;BME280;20454;48.100;11.776;2023-04-19T16:51:44;95474.25;;;6.66;100.00
34185;BME280;20454;48.100;11.776;2023-04-19T16:54:10;95484.25;;;6.62;100.00
34185;BME280;20454;48.100;11.776;2023-04-19T16:56:36;95487.84;;;6.63;99.60
34185;BME280;20454;48.100;11.776;2023-04-19T16:59:01;95483.34;;;6.48;96.91
34185;BME280;20454;48.100;11.776;2023-04-19T17:01:27;95485.72;;;6.36;98.63
34185;BME280;20454;48.100;11.776;2023-04-19T17:03:53;95482.19;;;6.31;98.87
34185;BME280;20454;48.100;11.776;2023-04-19T17:06:19;95480.38;;;6.21;98.72
34185;BME280;20454;48.100;11.776;2023-04-19T17:08:44;95474.34;;;6.19;99.15
34185;BME280;20454;48.100;11.776;2023-04-19T20:09:58;95463.09;;;5.07;100.00
34185;BME280;20454;48.100;11.776;2023-04-19T20:12:24;95461.75;;;5.04;100.00
34185;BME280;20454;48.100;11.776;2023-04-19T20:14:49;95462.28;;;5.06;100.00
34185;BME280;20454;48.100;11.776;2023-04-19T20:17:15;95455.66;;;5.07;100.00
34185;BME280;20454;48.100;11.776;2023-04-19T20:19:41;95456.19;;;5.09;100.00
34185;BME280;20454;48.100;11.776;2023-04-19T20:22:09;95451.78;;;5.08;100.00
34185;BME280;20454;48.100;11.776;2023-04-19T20:24:35;95458.94;;;5.09;100.00
34185;BME280;20454;48.100;11.776;2023-04-19T20:27:02;95457.31;;;5.08;100.00
34185;BME280;20454;48.100;11.776;2023-04-19T20:29:28;95455.38;;;5.09;100.00
34185;BME280;20454;48.100;11.776;2023-04-19T20:31:53;95455.38;;;5.09;100.00
34185;BME280;20454;48.100;11.776;2023-04-19T20:34:19;95456.22;;;5.04;100.00
34185;BME280;20454;48.100;11.776;2023-04-19T20:36:45;95459.53;;;5.06;100.00
34185;BME280;20454;48.100;11.776;2023-04-19T20:39:11;95463.41;;;5.05;100.00
34185;BME280;20454;48.100;11.776;2023-04-19T20:41:38;95467.22;;;5.09;100.00
34185;BME280;20454;48.100;11.776;2023-04-19T20:44:03;95464.19;;;5.11;100.00
34185;BME280;20454;48.100;11.776;2023-04-19T20:46:29;95461.69;;;5.09;100.00
34185;BME280;20454;48.100;11.776;2023-04-19T20:48:55;95467.78;;;5.11;100.00
34185;BME280;20454;48.100;11.776;2023-04-19T20:51:21;95476.03;;;5.11;100.00
34185;BME280;20454;48.100;11.776;2023-04-19T20:53:46;95457.03;;;5.10;100.00
34185;BME280;20454;48.100;11.776;2023-04-19T20:56:12;95450.69;;;5.09;100.00
34185;BME280;20454;48.100;11.776;2023-04-19T20:58:38;95459.50;;;5.11;100.00
34185;BME280;20454;48.100;11.776;2023-04-19T21:01:05;95453.72;;;5.08;100.00
34185;BME280;20454;48.100;11.776;2023-04-19T21:03:30;95457.31;;;5.08;100.00
34185;BME280;20454;48.100;11.776;2023-04-19T21:05:56;95449.31;;;5.07;100.00
34185;BME280;20454;48.100;11.776;2023-04-19T21:08:22;95450.44;;;5.06;100.00
34185;BME280;20454;48.100;11.776;2023-04-19T21:10:48;95449.63;;;5.05;100.00
34185;BME280;20454;48.100;11.776;2023-04-19T21:13:13;95443.81;;;5.07;100.00
34185;BME280;20454;48.100;11.776;2023-04-19T21:15:39;95444.09;;;5.05;100.00